KENV/ENV METAR and TAF weather

Enter ICAO airport designator
Station Type Date Time Source
KENV METAR 2020/10/20 17:27 UTC NOAA

KENV 201727Z AUTO 06015KT 10SM CLR 17/M03 A3011 RMK AO2 WSHFT 1702


Station Type Date Time Source
KENV Decoded METAR 2020/10/20 17:27 UTC NOAA

Wendover / Air Force Auxillary Field, UT, United States (KENV) 40-44N 114-02W 1292M
Oct 20, 2020 - 01:27 PM EDT / 2020.10.20 1727 UTC
Wind: from the ENE (060 degrees) at 17 MPH (15 KT):0
Visibility: 10 mile(s):0
Sky conditions: clear
Temperature: 62 F (17 C)
Dew Point: 26 F (-3 C)
Relative Humidity: 25%
Pressure (altimeter): 30.11 in. Hg (1019 hPa)
ob: KENV 201727Z AUTO 06015KT 10SM CLR 17/M03 A3011 RMK AO2 WSHFT 1702
cycle: 17

Station Type Date Time Source
KENV TAF 2020/10/20 18:27 UTC NOAA

TAF KENV 201725Z 2018/2118 12008KT P6SM SCT200
FM210300 VRB04KT P6SM SKC

Example: see airport list